createdAt,value
2023-04-17T00:00:53.498Z,20.84
2023-04-17T00:01:53.552Z,20.85
2023-04-17T00:02:53.645Z,20.85
2023-04-17T00:03:53.798Z,20.84
2023-04-17T00:04:53.649Z,20.84
2023-04-17T00:05:53.629Z,20.84
2023-04-17T00:06:53.663Z,20.84
2023-04-17T00:07:53.687Z,20.84
2023-04-17T00:08:53.752Z,20.84
2023-04-17T00:09:53.743Z,20.84
2023-04-17T00:11:04.230Z,20.84
2023-04-17T00:11:54.797Z,20.84
2023-04-17T00:12:53.797Z,20.84
2023-04-17T00:13:53.798Z,20.84
2023-04-17T00:14:53.801Z,20.84
2023-04-17T00:15:53.839Z,20.84
2023-04-17T00:16:53.922Z,20.84
2023-04-17T00:17:53.846Z,20.84
2023-04-17T00:18:53.819Z,20.84
2023-04-17T00:19:53.881Z,20.83
2023-04-17T00:20:53.874Z,20.83
2023-04-17T00:21:53.877Z,20.83
2023-04-17T00:22:53.910Z,20.84
2023-04-17T00:23:53.916Z,20.84
2023-04-17T00:24:53.919Z,20.83
2023-04-17T00:25:54.403Z,20.84
2023-04-17T00:26:53.962Z,20.84
2023-04-17T00:27:53.943Z,20.83
2023-04-17T00:28:53.992Z,20.83
2023-04-17T00:29:54.007Z,20.83
2023-04-17T00:30:54.034Z,20.84
2023-04-17T00:31:54.073Z,20.83
2023-04-17T00:32:54.101Z,20.83
2023-04-17T00:33:54.035Z,20.83
2023-04-17T00:34:55.702Z,20.84
2023-04-17T00:35:54.053Z,20.83
2023-04-17T00:36:54.050Z,20.83
2023-04-17T00:37:54.089Z,20.83
2023-04-17T00:38:54.087Z,20.83
2023-04-17T00:39:54.142Z,20.83
2023-04-17T00:40:54.171Z,20.83
2023-04-17T00:41:54.182Z,20.82
2023-04-17T00:42:54.212Z,20.83
2023-04-17T00:43:54.271Z,20.82
2023-04-17T00:44:54.300Z,20.82
2023-04-17T00:45:54.448Z,20.82
2023-04-17T00:46:54.349Z,20.82
2023-04-17T00:47:54.442Z,20.82
2023-04-17T00:48:54.478Z,20.82
2023-04-17T00:49:54.497Z,20.82
2023-04-17T00:50:54.498Z,20.81
2023-04-17T00:51:54.497Z,20.82
2023-04-17T00:52:54.594Z,20.82
2023-04-17T00:53:54.607Z,20.82
2023-04-17T00:54:54.603Z,20.81
2023-04-17T00:55:54.678Z,20.82
2023-04-17T00:56:54.688Z,20.82
2023-04-17T00:57:54.733Z,20.82
2023-04-17T00:58:54.716Z,20.82
2023-04-17T00:59:54.804Z,20.82
2023-04-17T01:00:54.850Z,20.82
2023-04-17T01:01:54.916Z,20.82
2023-04-17T01:02:54.941Z,20.81
2023-04-17T01:03:55.118Z,20.81
2023-04-17T01:04:54.899Z,20.81
2023-04-17T01:05:54.954Z,20.81
2023-04-17T01:06:54.989Z,20.81
2023-04-17T01:07:55.022Z,20.81
2023-04-17T01:08:55.019Z,20.81
2023-04-17T01:09:55.088Z,20.81
2023-04-17T01:10:55.121Z,20.82
2023-04-17T01:11:55.138Z,20.81
2023-04-17T01:12:55.157Z,20.82
2023-04-17T01:13:55.175Z,20.82
2023-04-17T01:14:55.270Z,20.81
2023-04-17T01:15:55.248Z,20.81
2023-04-17T01:16:55.308Z,20.81
2023-04-17T01:17:55.438Z,20.81
2023-04-17T01:18:55.331Z,20.81
2023-04-17T01:19:55.377Z,20.81
2023-04-17T01:20:55.458Z,20.81
2023-04-17T01:21:55.420Z,20.81
2023-04-17T01:22:55.514Z,20.81
2023-04-17T01:23:55.518Z,20.81
2023-04-17T01:24:55.560Z,20.80
2023-04-17T01:25:55.590Z,20.81
2023-04-17T01:26:55.607Z,20.81
2023-04-17T01:27:55.641Z,20.80
2023-04-17T01:28:55.673Z,20.81
2023-04-17T01:29:55.680Z,20.81
2023-04-17T01:30:55.785Z,20.80
2023-04-17T01:31:55.750Z,20.81
2023-04-17T01:32:55.883Z,20.81
2023-04-17T01:33:55.820Z,20.80
2023-04-17T01:34:55.813Z,20.81
2023-04-17T01:35:55.868Z,20.80
2023-04-17T01:36:55.903Z,20.80
2023-04-17T01:37:55.933Z,20.80
2023-04-17T01:38:55.943Z,20.80
2023-04-17T01:39:55.947Z,20.80
2023-04-17T01:40:56.002Z,20.81
2023-04-17T01:41:56.001Z,20.81
2023-04-17T01:42:56.056Z,20.81
2023-04-17T01:43:56.069Z,20.81
2023-04-17T01:44:56.115Z,20.80
2023-04-17T01:45:56.163Z,20.80
2023-04-17T01:46:56.186Z,20.80
2023-04-17T01:47:56.251Z,20.80
2023-04-17T01:48:56.231Z,20.80
2023-04-17T01:49:56.233Z,20.81
2023-04-17T01:50:56.276Z,20.80
2023-04-17T01:51:56.322Z,20.80
2023-04-17T01:52:56.324Z,20.80
2023-04-17T01:53:56.346Z,20.80
2023-04-17T01:54:56.413Z,20.80
2023-04-17T01:55:56.434Z,20.80
2023-04-17T01:56:56.481Z,20.79
2023-04-17T01:57:56.470Z,20.80
2023-04-17T01:58:56.583Z,20.80
2023-04-17T01:59:56.588Z,20.80
2023-04-17T02:00:56.595Z,20.80
2023-04-17T02:01:56.755Z,20.80
2023-04-17T02:02:56.782Z,20.80
2023-04-17T02:03:56.765Z,20.80
2023-04-17T02:04:56.720Z,20.80
2023-04-17T02:05:56.753Z,20.80
2023-04-17T02:06:56.794Z,20.80
2023-04-17T02:07:56.964Z,20.80
2023-04-17T02:08:56.884Z,20.80
2023-04-17T02:09:56.899Z,20.80
2023-04-17T02:10:56.964Z,20.81
2023-04-17T02:11:56.979Z,20.80
2023-04-17T02:12:57.024Z,20.80
2023-04-17T02:13:57.043Z,20.80
2023-04-17T02:14:57.073Z,20.79
2023-04-17T02:15:57.173Z,20.80
2023-04-17T02:16:57.145Z,20.80
2023-04-17T02:17:57.208Z,20.79
2023-04-17T02:18:57.205Z,20.80
2023-04-17T02:19:57.248Z,20.79
2023-04-17T02:20:57.304Z,20.79
2023-04-17T02:21:57.296Z,20.79
2023-04-17T02:22:57.327Z,20.79
2023-04-17T02:23:57.343Z,20.79
2023-04-17T02:24:57.422Z,20.79
2023-04-17T02:25:57.424Z,20.78
2023-04-17T02:26:57.556Z,20.79
2023-04-17T02:27:57.477Z,20.79
2023-04-17T02:28:57.495Z,20.80
2023-04-17T02:29:57.578Z,20.80
2023-04-17T02:30:57.637Z,20.79
2023-04-17T02:31:57.602Z,20.79
2023-04-17T02:32:57.666Z,20.79
2023-04-17T02:33:57.708Z,20.79
2023-04-17T02:34:57.719Z,20.79
2023-04-17T02:35:57.776Z,20.80
2023-04-17T02:36:57.795Z,20.79
2023-04-17T02:37:57.857Z,20.79
2023-04-17T02:38:57.880Z,20.78
2023-04-17T02:39:57.920Z,20.79
2023-04-17T02:40:57.922Z,20.78
2023-04-17T02:41:57.975Z,20.79
2023-04-17T02:42:58.022Z,20.79
2023-04-17T02:43:58.001Z,20.79
2023-04-17T02:44:58.122Z,20.79
2023-04-17T02:45:58.116Z,20.78
2023-04-17T02:46:58.273Z,20.79
2023-04-17T02:47:58.201Z,20.79
2023-04-17T02:48:58.201Z,20.79
2023-04-17T02:49:58.237Z,20.79
2023-04-17T02:50:58.257Z,20.79
2023-04-17T02:51:58.301Z,20.79
2023-04-17T02:52:58.353Z,20.79
2023-04-17T02:53:58.369Z,20.79
2023-04-17T02:54:58.418Z,20.79
2023-04-17T02:55:58.440Z,20.79
2023-04-17T02:56:58.471Z,20.78
2023-04-17T02:57:58.539Z,20.79
2023-04-17T02:58:58.521Z,20.79
2023-04-17T02:59:58.608Z,20.79
2023-04-17T03:00:58.632Z,20.79
2023-04-17T03:01:58.768Z,20.79
2023-04-17T03:02:58.792Z,20.79
2023-04-17T03:03:59.026Z,20.78
2023-04-17T03:04:58.750Z,20.78
2023-04-17T03:05:58.773Z,20.79
2023-04-17T03:06:58.823Z,20.78
2023-04-17T03:07:58.839Z,20.78
2023-04-17T03:08:58.874Z,20.78
2023-04-17T03:09:58.915Z,20.78
2023-04-17T03:10:58.942Z,20.78
2023-04-17T03:11:58.994Z,20.78
2023-04-17T03:12:59.045Z,20.77
2023-04-17T03:13:59.028Z,20.78
2023-04-17T03:14:59.080Z,20.77
2023-04-17T03:15:59.186Z,20.77
2023-04-17T03:16:59.216Z,20.77
2023-04-17T03:17:59.278Z,20.78
2023-04-17T03:18:59.224Z,20.78
2023-04-17T03:19:59.261Z,20.79
2023-04-17T03:20:59.295Z,20.77
2023-04-17T03:21:59.331Z,20.79
2023-04-17T03:22:59.343Z,20.79
2023-04-17T03:23:59.398Z,20.79
2023-04-17T03:24:59.421Z,20.79
2023-04-17T03:25:59.464Z,20.79
2023-04-17T03:26:59.462Z,20.79
2023-04-17T03:27:59.527Z,20.79
2023-04-17T03:28:59.582Z,20.79
2023-04-17T03:29:59.588Z,20.79
2023-04-17T03:30:59.623Z,20.79
2023-04-17T03:31:59.715Z,20.78
2023-04-17T03:32:59.747Z,20.80
2023-04-17T03:33:59.719Z,20.80
2023-04-17T03:34:59.760Z,20.79
2023-04-17T03:35:59.791Z,20.79
2023-04-17T03:36:59.838Z,20.79
2023-04-17T03:37:59.896Z,20.79
2023-04-17T03:38:59.919Z,20.79
2023-04-17T03:39:59.981Z,20.79
2023-04-17T03:40:59.977Z,20.79
2023-04-17T03:42:00.029Z,20.79
2023-04-17T03:43:00.069Z,20.79
2023-04-17T03:44:00.172Z,20.79
2023-04-17T03:45:00.160Z,20.79
2023-04-17T03:46:00.226Z,20.78
2023-04-17T03:47:00.184Z,20.79
2023-04-17T03:48:00.292Z,20.79
2023-04-17T03:49:00.243Z,20.78
2023-04-17T03:50:00.306Z,20.79
2023-04-17T03:51:00.348Z,20.79
2023-04-17T03:52:00.355Z,20.79
2023-04-17T03:53:00.348Z,20.79
2023-04-17T03:54:00.425Z,20.79
2023-04-17T03:55:00.439Z,20.79
2023-04-17T03:56:00.513Z,20.79
2023-04-17T03:57:00.501Z,20.79
2023-04-17T03:58:00.550Z,20.79
2023-04-17T03:59:00.577Z,20.79
2023-04-17T04:00:00.625Z,20.80
2023-04-17T04:01:00.648Z,20.79
2023-04-17T04:02:00.750Z,20.79
2023-04-17T04:03:00.816Z,20.79
2023-04-17T04:04:00.881Z,20.80
2023-04-17T04:05:00.825Z,20.79
2023-04-17T04:06:00.806Z,20.79
2023-04-17T04:07:00.802Z,20.79
2023-04-17T04:08:00.860Z,20.79
2023-04-17T04:09:00.899Z,20.80
2023-04-17T04:10:00.952Z,20.79
2023-04-17T04:11:00.960Z,20.80
2023-04-17T04:12:00.956Z,20.79
2023-04-17T04:13:01.038Z,20.79
2023-04-17T04:14:01.034Z,20.80
2023-04-17T04:15:02.106Z,20.79
2023-04-17T04:16:01.302Z,20.79
2023-04-17T04:17:01.170Z,20.79
2023-04-17T04:18:01.244Z,20.79
2023-04-17T04:19:01.195Z,20.79
2023-04-17T04:20:01.297Z,20.78
2023-04-17T04:21:01.296Z,20.79
2023-04-17T04:22:01.329Z,20.80
2023-04-17T04:23:01.327Z,20.80
2023-04-17T04:24:01.367Z,20.79
2023-04-17T04:25:01.429Z,20.79
2023-04-17T04:26:01.520Z,20.79
2023-04-17T04:27:01.487Z,20.78
2023-04-17T04:28:01.551Z,20.79
2023-04-17T04:29:01.579Z,20.78
2023-04-17T04:30:01.601Z,20.78
2023-04-17T04:31:01.653Z,20.78
2023-04-17T04:32:01.636Z,20.79
2023-04-17T04:33:01.709Z,20.78
2023-04-17T04:34:01.760Z,20.78
2023-04-17T04:35:01.771Z,20.78
2023-04-17T04:36:02.009Z,20.78
2023-04-17T04:37:01.786Z,20.78
2023-04-17T04:38:01.866Z,20.78
2023-04-17T04:39:01.926Z,20.78
2023-04-17T04:40:01.980Z,20.78
2023-04-17T04:41:01.966Z,20.78
2023-04-17T04:42:01.989Z,20.78
2023-04-17T04:43:02.006Z,20.78
2023-04-17T04:44:02.061Z,20.78
2023-04-17T04:45:02.119Z,20.78
2023-04-17T04:46:02.158Z,20.78
2023-04-17T04:47:02.304Z,20.79
2023-04-17T04:48:02.265Z,20.79
2023-04-17T04:49:02.240Z,20.79
2023-04-17T04:50:02.312Z,20.78
2023-04-17T04:51:02.290Z,20.78
2023-04-17T04:52:02.409Z,20.78
2023-04-17T04:53:02.348Z,20.83
2023-04-17T04:54:02.401Z,20.87
2023-04-17T04:55:02.366Z,20.90
2023-04-17T04:56:02.405Z,20.92
2023-04-17T04:57:02.459Z,20.94
2023-04-17T04:58:02.524Z,20.94
2023-04-17T04:59:02.514Z,20.95
2023-04-17T05:00:02.612Z,20.95
2023-04-17T05:01:02.798Z,20.95
2023-04-17T05:02:02.775Z,20.95
2023-04-17T05:03:03.146Z,20.93
2023-04-17T05:04:03.105Z,20.95
2023-04-17T05:05:03.040Z,20.93
2023-04-17T05:06:03.042Z,20.93
2023-04-17T05:07:03.097Z,20.93
2023-04-17T05:08:03.162Z,20.93
2023-04-17T05:09:03.258Z,20.93
2023-04-17T05:10:03.339Z,20.93
2023-04-17T05:11:03.438Z,20.93
2023-04-17T05:12:03.489Z,20.94
2023-04-17T05:13:03.517Z,20.94
2023-04-17T05:14:03.576Z,20.94
2023-04-17T05:15:03.665Z,20.95
2023-04-17T05:16:03.798Z,20.96
2023-04-17T05:17:03.794Z,20.97
2023-04-17T05:18:03.946Z,20.97
2023-04-17T05:19:04.646Z,20.97
2023-04-17T05:20:04.053Z,20.98
2023-04-17T05:21:04.103Z,20.99
2023-04-17T05:22:04.155Z,21.00
2023-04-17T05:23:04.263Z,21.00
2023-04-17T05:24:04.345Z,21.01
2023-04-17T05:25:04.364Z,21.01
2023-04-17T05:26:04.492Z,21.02
2023-04-17T05:27:04.533Z,21.03
2023-04-17T05:28:04.557Z,21.03
2023-04-17T05:29:04.619Z,21.04
2023-04-17T05:30:04.723Z,21.05
2023-04-17T05:31:04.745Z,21.06
2023-04-17T05:32:04.980Z,21.06
2023-04-17T05:33:04.978Z,21.07
2023-04-17T05:34:04.957Z,21.04
2023-04-17T05:35:04.988Z,21.00
2023-04-17T05:36:05.079Z,21.02
2023-04-17T05:37:05.129Z,21.03
2023-04-17T05:38:05.251Z,21.07
2023-04-17T05:39:05.401Z,21.09
2023-04-17T05:40:05.363Z,21.11
2023-04-17T05:41:05.463Z,21.11
2023-04-17T05:42:05.522Z,21.09
2023-04-17T05:43:05.573Z,21.12
2023-04-17T05:44:05.688Z,21.11
2023-04-17T05:45:05.730Z,21.14
2023-04-17T05:46:06.068Z,21.17
2023-04-17T05:47:05.908Z,21.18
2023-04-17T05:48:06.064Z,21.19
2023-04-17T05:49:06.026Z,21.21
2023-04-17T05:50:06.189Z,21.22
2023-04-17T05:51:06.517Z,21.23
2023-04-17T05:52:06.280Z,21.23
2023-04-17T05:53:06.375Z,21.26
2023-04-17T05:54:06.415Z,21.27
2023-04-17T05:55:06.478Z,21.27
2023-04-17T05:56:06.994Z,21.28
2023-04-17T05:57:06.569Z,21.30
2023-04-17T05:58:22.197Z,21.31
2023-04-17T05:59:07.636Z,21.30
2023-04-17T06:00:06.706Z,21.29
2023-04-17T06:01:06.698Z,21.28
2023-04-17T06:02:06.734Z,21.27
2023-04-17T06:03:06.941Z,21.26
2023-04-17T06:04:06.847Z,21.27
2023-04-17T06:05:06.883Z,21.27
2023-04-17T06:06:06.703Z,21.26
2023-04-17T06:07:07.002Z,21.27
2023-04-17T06:08:06.766Z,21.27
2023-04-17T06:09:06.780Z,21.27
2023-04-17T06:10:07.497Z,21.28
2023-04-17T06:11:06.794Z,21.28
2023-04-17T06:12:06.798Z,21.29
2023-04-17T06:13:06.835Z,21.29
2023-04-17T06:14:06.823Z,21.28
2023-04-17T06:15:07.454Z,21.29
2023-04-17T06:16:06.904Z,21.29
2023-04-17T06:17:06.989Z,21.29
2023-04-17T06:18:07.172Z,21.30
2023-04-17T06:19:07.041Z,21.30
2023-04-17T06:20:07.100Z,21.31
2023-04-17T06:21:07.140Z,21.30
2023-04-17T06:22:07.535Z,21.30
2023-04-17T06:23:07.208Z,21.31
2023-04-17T06:24:07.267Z,21.31
2023-04-17T06:25:07.296Z,21.32
2023-04-17T06:26:07.399Z,21.33
2023-04-17T06:27:07.383Z,21.33
2023-04-17T06:28:07.527Z,21.33
2023-04-17T06:29:07.495Z,21.34
2023-04-17T06:30:07.536Z,21.34
2023-04-17T06:31:07.674Z,21.35
2023-04-17T06:32:07.647Z,21.36
2023-04-17T06:33:07.850Z,21.36
2023-04-17T06:34:07.743Z,21.36
2023-04-17T06:35:07.810Z,21.34
2023-04-17T06:36:07.842Z,21.35
2023-04-17T06:37:07.910Z,21.35
2023-04-17T06:38:07.969Z,21.37
2023-04-17T06:39:08.011Z,21.38
2023-04-17T06:40:08.060Z,21.39
2023-04-17T06:41:08.122Z,21.37
2023-04-17T06:42:08.173Z,21.38
2023-04-17T06:43:08.228Z,21.37
2023-04-17T06:44:08.266Z,21.37
2023-04-17T06:45:08.411Z,21.37
2023-04-17T06:46:08.352Z,21.37
2023-04-17T06:47:08.536Z,21.38
2023-04-17T06:48:08.482Z,21.40
2023-04-17T06:49:08.625Z,21.46
2023-04-17T06:50:08.520Z,21.48
2023-04-17T06:51:08.585Z,21.46
2023-04-17T06:52:08.630Z,21.46
2023-04-17T06:53:08.711Z,21.44
2023-04-17T06:54:08.748Z,21.44
2023-04-17T06:55:08.888Z,21.45
2023-04-17T06:56:08.907Z,21.45
2023-04-17T06:57:09.043Z,21.46
2023-04-17T06:58:09.001Z,21.48
2023-04-17T06:59:09.114Z,21.49
2023-04-17T07:00:09.230Z,21.52
2023-04-17T07:01:09.133Z,21.53
2023-04-17T07:02:09.295Z,21.52
2023-04-17T07:03:09.340Z,21.51
2023-04-17T07:04:09.408Z,21.48
2023-04-17T07:05:09.322Z,21.47
2023-04-17T07:06:09.418Z,21.45
2023-04-17T07:07:09.498Z,21.44
2023-04-17T07:08:09.519Z,21.43
2023-04-17T07:09:09.583Z,21.44
2023-04-17T07:10:09.646Z,21.45
2023-04-17T07:11:09.725Z,21.46
2023-04-17T07:12:09.752Z,21.47
2023-04-17T07:13:09.878Z,21.46
2023-04-17T07:14:12.287Z,21.45
2023-04-17T07:15:09.934Z,21.45
2023-04-17T07:16:09.950Z,21.45
2023-04-17T07:17:09.884Z,21.44
2023-04-17T07:18:09.954Z,21.42
2023-04-17T07:19:10.116Z,21.42
2023-04-17T07:20:09.916Z,21.40
2023-04-17T07:21:09.932Z,21.41
2023-04-17T07:22:09.944Z,21.40
2023-04-17T07:23:10.040Z,21.40
2023-04-17T07:24:09.944Z,21.43
2023-04-17T07:25:09.967Z,21.43
2023-04-17T07:26:09.959Z,21.44
2023-04-17T07:27:09.997Z,21.46
2023-04-17T07:28:09.970Z,21.46
2023-04-17T07:29:10.218Z,21.46
2023-04-17T07:30:10.034Z,21.46
2023-04-17T07:31:10.092Z,21.44
2023-04-17T07:32:10.014Z,21.44
2023-04-17T07:33:10.126Z,21.43
2023-04-17T07:34:10.041Z,21.44
2023-04-17T07:35:10.057Z,21.43
2023-04-17T07:36:10.058Z,21.44
2023-04-17T07:37:10.038Z,21.44
2023-04-17T07:38:10.056Z,21.46
2023-04-17T07:39:10.308Z,21.46
2023-04-17T07:40:10.095Z,21.48
2023-04-17T07:41:10.080Z,21.51
2023-04-17T07:42:10.535Z,21.57
2023-04-17T07:43:10.101Z,21.60
2023-04-17T07:44:10.107Z,21.66
2023-04-17T07:45:10.140Z,21.71
2023-04-17T07:46:10.176Z,21.75
2023-04-17T07:47:10.190Z,21.78
2023-04-17T07:48:10.158Z,21.80
2023-04-17T07:49:12.188Z,21.78
2023-04-17T07:50:10.168Z,21.78
2023-04-17T07:51:10.142Z,21.77
2023-04-17T07:52:10.180Z,21.78
2023-04-17T07:53:10.173Z,21.78
2023-04-17T07:54:10.238Z,21.79
2023-04-17T07:55:10.175Z,21.81
2023-04-17T07:56:11.644Z,21.82
2023-04-17T07:57:10.261Z,21.82
2023-04-17T07:58:10.278Z,21.80
2023-04-17T07:59:10.592Z,21.79
2023-04-17T08:00:10.323Z,21.80
2023-04-17T08:01:10.350Z,21.79
2023-04-17T08:02:10.420Z,21.78
2023-04-17T08:03:10.513Z,21.75
2023-04-17T08:04:10.535Z,21.72
2023-04-17T08:05:10.464Z,21.69
2023-04-17T08:06:10.482Z,21.68
2023-04-17T08:07:10.557Z,21.65
2023-04-17T08:08:10.586Z,21.62
2023-04-17T08:09:10.804Z,21.65
2023-04-17T08:10:10.649Z,21.69
2023-04-17T08:11:10.661Z,21.68
2023-04-17T08:12:10.706Z,21.68
2023-04-17T08:13:10.767Z,21.71
2023-04-17T08:14:10.784Z,21.74
2023-04-17T08:15:10.825Z,21.77
2023-04-17T08:16:10.873Z,21.79
2023-04-17T08:17:11.006Z,21.81
2023-04-17T08:18:10.924Z,21.80
2023-04-17T08:19:11.062Z,21.79
2023-04-17T08:20:10.927Z,21.78
2023-04-17T08:21:10.945Z,21.80
2023-04-17T08:22:11.068Z,21.78
2023-04-17T08:23:11.018Z,21.79
2023-04-17T08:24:11.076Z,21.79
2023-04-17T08:25:11.161Z,21.76
2023-04-17T08:26:11.115Z,21.75
2023-04-17T08:27:11.210Z,21.76
2023-04-17T08:28:11.232Z,21.78
2023-04-17T08:29:11.513Z,21.80
2023-04-17T08:30:13.752Z,21.81
2023-04-17T08:31:11.265Z,21.83
2023-04-17T08:32:14.829Z,21.83
2023-04-17T08:33:11.215Z,21.83
2023-04-17T08:34:14.741Z,21.84
2023-04-17T08:35:11.298Z,21.82
2023-04-17T08:36:11.331Z,21.81
2023-04-17T08:37:11.568Z,21.79
2023-04-17T08:38:11.280Z,21.83
2023-04-17T08:39:11.511Z,21.84
2023-04-17T08:40:11.250Z,21.88
2023-04-17T08:41:11.263Z,21.91
2023-04-17T08:42:16.544Z,21.92
2023-04-17T08:43:12.269Z,21.88
2023-04-17T08:44:11.286Z,21.89
2023-04-17T08:45:11.256Z,21.91
2023-04-17T08:46:11.362Z,21.94
2023-04-17T08:47:11.566Z,21.96
2023-04-17T08:48:11.291Z,21.95
2023-04-17T08:49:11.538Z,21.95
2023-04-17T08:50:11.271Z,21.92
2023-04-17T08:51:11.256Z,21.89
2023-04-17T08:52:11.570Z,21.87
2023-04-17T08:53:11.270Z,21.85
2023-04-17T08:54:11.297Z,21.87
2023-04-17T08:55:11.336Z,21.90
2023-04-17T08:56:11.322Z,21.93
2023-04-17T08:57:11.571Z,21.95
2023-04-17T08:58:11.354Z,21.95
2023-04-17T08:59:11.664Z,21.97
2023-04-17T09:00:11.278Z,21.98
2023-04-17T09:01:11.400Z,21.99
2023-04-17T09:02:11.511Z,21.99
2023-04-17T09:03:11.443Z,21.99
2023-04-17T09:04:11.426Z,21.99
2023-04-17T09:05:11.302Z,21.98
2023-04-17T09:06:11.354Z,21.96
2023-04-17T09:07:11.308Z,21.96
2023-04-17T09:08:11.344Z,21.95
2023-04-17T09:09:11.413Z,21.94
2023-04-17T09:10:11.290Z,21.93
2023-04-17T09:11:11.302Z,21.94
2023-04-17T09:12:11.340Z,21.93
2023-04-17T09:13:11.301Z,21.93
2023-04-17T09:14:11.325Z,21.93
2023-04-17T09:15:11.386Z,21.92
2023-04-17T09:16:11.377Z,21.92
2023-04-17T09:17:11.295Z,21.92
2023-04-17T09:18:11.328Z,21.92
2023-04-17T09:19:11.624Z,21.91
2023-04-17T09:20:11.359Z,21.91
2023-04-17T09:21:11.386Z,21.92
2023-04-17T09:22:11.398Z,21.92
2023-04-17T09:23:11.415Z,21.91
2023-04-17T09:24:11.432Z,21.90
2023-04-17T09:25:11.452Z,21.90
2023-04-17T09:26:11.477Z,21.88
2023-04-17T09:27:11.566Z,21.87
2023-04-17T09:28:11.531Z,21.87
2023-04-17T09:29:12.416Z,21.88
2023-04-17T09:30:11.574Z,21.90
2023-04-17T09:31:12.431Z,21.91
2023-04-17T09:32:11.605Z,21.93
2023-04-17T09:33:12.125Z,21.94
2023-04-17T09:34:11.625Z,21.95
2023-04-17T09:35:11.643Z,21.95
2023-04-17T09:36:11.622Z,21.90
2023-04-17T09:37:11.653Z,21.88
2023-04-17T09:38:11.694Z,21.83
2023-04-17T09:39:11.851Z,21.85
2023-04-17T09:40:11.703Z,21.87
2023-04-17T09:41:11.772Z,21.85
2023-04-17T09:42:11.785Z,21.85
2023-04-17T09:43:12.104Z,21.87
2023-04-17T09:44:12.136Z,21.94
2023-04-17T09:45:11.860Z,22.00
2023-04-17T09:46:11.880Z,22.03
2023-04-17T09:47:11.850Z,22.04
2023-04-17T09:48:12.131Z,22.05
2023-04-17T09:49:11.958Z,22.04
2023-04-17T09:50:11.952Z,22.03
2023-04-17T09:51:12.004Z,22.04
2023-04-17T09:52:12.014Z,22.05
2023-04-17T09:53:12.049Z,22.05
2023-04-17T09:54:12.670Z,22.05
2023-04-17T09:55:12.210Z,22.05
2023-04-17T09:56:12.282Z,22.05
2023-04-17T09:57:12.360Z,22.02
2023-04-17T09:58:12.411Z,21.96
2023-04-17T09:59:12.401Z,21.92
2023-04-17T10:00:12.404Z,21.91
2023-04-17T10:01:12.457Z,21.90
2023-04-17T10:02:12.498Z,21.88
2023-04-17T10:03:12.629Z,21.83
2023-04-17T10:04:12.914Z,21.84
2023-04-17T10:05:12.485Z,21.86
2023-04-17T10:06:12.519Z,21.84
2023-04-17T10:07:12.529Z,21.85
2023-04-17T10:08:12.562Z,21.85
2023-04-17T10:09:12.572Z,21.84
2023-04-17T10:10:12.566Z,21.81
2023-04-17T10:11:12.610Z,21.83
2023-04-17T10:12:12.616Z,21.85
2023-04-17T10:13:12.634Z,21.85
2023-04-17T10:14:12.924Z,21.87
2023-04-17T10:15:12.656Z,21.88
2023-04-17T10:16:12.688Z,21.90
2023-04-17T10:17:12.689Z,21.90
2023-04-17T10:18:13.141Z,21.90
2023-04-17T10:19:12.714Z,21.90
2023-04-17T10:20:12.715Z,21.88
2023-04-17T10:21:12.739Z,21.88
2023-04-17T10:22:12.719Z,21.87
2023-04-17T10:23:12.768Z,21.86
2023-04-17T10:24:12.913Z,21.83
2023-04-17T10:25:12.810Z,21.83
2023-04-17T10:26:12.761Z,21.83
2023-04-17T10:27:12.807Z,21.85
2023-04-17T10:28:12.809Z,21.86
2023-04-17T10:29:12.862Z,21.84
2023-04-17T10:30:12.829Z,21.84
2023-04-17T10:31:12.926Z,21.84
2023-04-17T10:32:12.937Z,21.86
2023-04-17T10:33:12.985Z,21.83
2023-04-17T10:34:13.048Z,21.82
2023-04-17T10:35:12.871Z,21.81
2023-04-17T10:36:12.922Z,21.78
2023-04-17T10:37:13.037Z,21.80
2023-04-17T10:38:13.145Z,21.83
2023-04-17T10:39:13.380Z,21.84
2023-04-17T10:40:14.379Z,21.86
2023-04-17T10:41:13.075Z,21.86
2023-04-17T10:42:13.094Z,21.87
2023-04-17T10:43:13.094Z,21.90
2023-04-17T10:44:13.077Z,21.92
2023-04-17T10:45:13.133Z,21.92
2023-04-17T10:46:13.236Z,21.92
2023-04-17T10:48:13.184Z,21.92
2023-04-17T10:49:13.350Z,21.91
2023-04-17T10:50:13.148Z,21.92
2023-04-17T10:51:13.141Z,21.92
2023-04-17T10:52:13.163Z,21.92
2023-04-17T10:53:14.854Z,21.92
2023-04-17T10:54:13.176Z,21.93
2023-04-17T10:55:13.194Z,21.92
2023-04-17T10:56:13.181Z,21.87
2023-04-17T10:57:13.238Z,21.87
2023-04-17T10:58:13.254Z,21.86
2023-04-17T10:59:13.561Z,21.87
2023-04-17T11:00:13.312Z,21.87
2023-04-17T11:01:13.306Z,21.88
2023-04-17T11:02:13.330Z,21.86
2023-04-17T11:03:13.444Z,21.84
2023-04-17T11:04:13.332Z,21.83
2023-04-17T11:05:13.313Z,21.84
2023-04-17T11:06:13.355Z,21.83
2023-04-17T11:07:13.344Z,21.86
2023-04-17T11:08:13.369Z,21.87
2023-04-17T11:09:13.834Z,21.89
2023-04-17T11:10:13.488Z,21.89
2023-04-17T11:11:13.447Z,21.89
2023-04-17T11:12:13.410Z,21.86
2023-04-17T11:13:13.435Z,21.83
2023-04-17T11:14:14.598Z,21.82
2023-04-17T11:15:13.450Z,21.81
2023-04-17T11:16:13.512Z,21.80
2023-04-17T11:17:13.568Z,21.80
2023-04-17T11:18:13.529Z,21.81
2023-04-17T11:19:13.671Z,21.80
2023-04-17T11:20:13.589Z,21.79
2023-04-17T11:21:13.599Z,21.77
2023-04-17T11:22:13.606Z,21.78
2023-04-17T11:23:13.668Z,21.81
2023-04-17T11:24:13.658Z,21.83
2023-04-17T11:25:13.678Z,21.84
2023-04-17T11:26:13.691Z,21.83
2023-04-17T11:27:13.799Z,21.83
2023-04-17T11:28:13.764Z,21.85
2023-04-17T11:29:14.032Z,21.86
2023-04-17T11:30:13.761Z,21.84
2023-04-17T11:31:14.671Z,21.84
2023-04-17T11:32:13.814Z,21.83
2023-04-17T11:33:14.150Z,21.85
2023-04-17T11:34:13.840Z,21.87
2023-04-17T11:35:14.620Z,21.89
2023-04-17T11:36:13.851Z,21.92
2023-04-17T11:37:13.924Z,21.93
2023-04-17T11:38:13.978Z,21.90
2023-04-17T11:39:14.157Z,21.88
2023-04-17T11:40:13.953Z,21.88
2023-04-17T11:41:13.998Z,21.86
2023-04-17T11:42:13.973Z,21.86
2023-04-17T11:43:14.032Z,21.87
2023-04-17T11:44:13.990Z,21.87
2023-04-17T11:45:14.041Z,21.87
2023-04-17T11:46:14.069Z,21.90
2023-04-17T11:47:14.054Z,21.88
2023-04-17T11:48:14.151Z,21.87
2023-04-17T11:49:14.270Z,21.87
2023-04-17T11:50:14.131Z,21.88
2023-04-17T11:51:14.097Z,21.89
2023-04-17T11:52:15.764Z,21.92
2023-04-17T11:53:14.155Z,21.90
2023-04-17T11:54:14.150Z,21.87
2023-04-17T11:55:14.139Z,21.89
2023-04-17T11:56:14.211Z,21.90
2023-04-17T11:57:14.126Z,21.89
2023-04-17T11:58:14.196Z,21.92
2023-04-17T11:59:14.119Z,21.93
2023-04-17T12:00:14.164Z,21.95
2023-04-17T12:01:14.133Z,21.95
2023-04-17T12:02:14.202Z,21.94
2023-04-17T12:03:14.374Z,21.94
2023-04-17T12:04:14.514Z,21.94
2023-04-17T12:05:14.268Z,21.94
2023-04-17T12:06:14.100Z,21.94
2023-04-17T12:07:14.117Z,21.93
2023-04-17T12:08:14.104Z,21.93
2023-04-17T12:09:14.250Z,21.94
2023-04-17T12:10:14.136Z,21.94
2023-04-17T12:11:14.133Z,21.95
2023-04-17T12:12:14.148Z,21.96
2023-04-17T12:13:14.155Z,21.96
2023-04-17T12:14:14.459Z,21.96
2023-04-17T12:15:14.670Z,21.95
2023-04-17T12:16:14.170Z,21.94
2023-04-17T12:17:14.201Z,21.93
2023-04-17T12:18:14.169Z,21.92
2023-04-17T12:19:14.155Z,21.90
2023-04-17T12:20:14.633Z,21.88
2023-04-17T12:21:14.164Z,21.88
2023-04-17T12:22:14.149Z,21.88
2023-04-17T12:23:14.143Z,21.88
2023-04-17T12:24:14.240Z,21.88
2023-04-17T12:25:14.169Z,21.89
2023-04-17T12:26:14.197Z,21.89
2023-04-17T12:27:14.184Z,21.88
2023-04-17T12:28:14.161Z,21.88
2023-04-17T12:29:14.176Z,21.88
2023-04-17T12:30:14.155Z,21.86
2023-04-17T12:31:14.257Z,21.84
2023-04-17T12:32:14.315Z,21.83
2023-04-17T12:33:14.311Z,21.81
2023-04-17T12:34:14.640Z,21.79
2023-04-17T12:35:14.401Z,21.79
2023-04-17T12:36:14.444Z,21.79
2023-04-17T12:37:14.504Z,21.77
2023-04-17T12:38:14.526Z,21.78
2023-04-17T12:39:14.569Z,21.77
2023-04-17T12:40:14.603Z,21.78
2023-04-17T12:41:14.609Z,21.79
2023-04-17T12:42:14.633Z,21.81
2023-04-17T12:43:14.668Z,21.81
2023-04-17T12:44:14.906Z,21.81
2023-04-17T12:45:14.736Z,21.81
2023-04-17T12:46:14.777Z,21.82
2023-04-17T12:47:14.755Z,21.82
2023-04-17T12:48:14.820Z,21.82
2023-04-17T12:49:14.971Z,21.81
2023-04-17T12:50:14.867Z,21.81
2023-04-17T12:51:14.886Z,21.81
2023-04-17T12:52:14.917Z,21.82
2023-04-17T12:53:14.969Z,21.83
2023-04-17T12:54:15.154Z,21.82